Airfield :
LOGIN :

Register | Disclaimer

   EN    FR    IT 

 










Legend :    VFR   Marginal VFR   IFR   Intensive IFR   Very Intensive IFR
Visi :
Ceiling :
>= 8 km
>= 3000ft
5 to 8 km
1000 to 3000 ft
1500m to 5 km
500 to 1000 ft
800 to 1500m
200 to 500 ft
< 800m
< 200 ft
Symbols :   Thunderstorms  Fog  Heavy snow  Heavy precipitations  Wind > 20 kt
SIGMETs :     Misc.  Thunderstorms  Icing  Turbulence  Mountain Waves  Volcanic Ashes






- Airport Elevation : 177 ft
- IATA code : AYT


LTAI - Antalya

CURRENT METAR :
  • 140850Z 28004KT 230V330 9999 -SHRA FEW020CB BKN030 21/07 Q1012 NOSIG RMK RWY18C 29004KT 260V330 RWY36R 28006KT RWY18L 29005KT

EXPIRED METARs :
  • 140820Z 35010KT 9999 SCT030 BKN090 22/05 Q1012 NOSIG RMK RWY18C 34008KT RWY36R 34009KT RWY18L 01006KT
  • 140750Z 35008KT 9999 SCT030 BKN100 20/05 Q1012 NOSIG RMK RWY18C 35008KT RWY36R 35008KT RWY18L 01005KT
  • 140720Z 35007KT 9999 SCT030 BKN100 20/05 Q1012 NOSIG RMK RWY18C 32005KT RWY36R 33007KT RWY18L 33005KT
  • 140650Z 35009KT 9999 SCT030 BKN100 19/05 Q1012 NOSIG RMK RWY18C 35008KT RWY36R 34007KT RWY18L 36005KT
  • 140620Z 35008KT 9999 SCT030 BKN100 19/04 Q1012 NOSIG RMK RWY18C 33005KT RWY36R 33006KT RWY18L 35004KT

TAF TAF LTAI
Valid from the 14 at 06:00 until the 15 at 06:00 UTC


140440Z 1406/1506 VRB02KT 9999 SCT030 BKN100
BECMG 1406/1410 -SHRA FEW020CB BKN030
PROB40 1410/1414 24015G25KT -TSRA
BECMG 1418/1421 -TSRA



MET'MAP, your aeronautical weather chart ! - Copyright ORBIFLY December 2007 - Disclaimer

ORBIFLY MET'MAP TEAM :

Programming & Development : Alexandra Zaïnal
Concept & Development : Baudouin d'Aumeries
Co-Development & Prog : Marc-Olivier Méhu
Technical & hardware support : Manuel Goepfert

Contact : metmap@orbifly.com




SOURCES & CREDITS :

   NOAA